Time;durP1;ratioP1;P1;durP2;ratioP2;P2;SDS_P1;SDS_P2;PMS_P1;PMS_P2;Temp;Humidity;BMP_temperature;BMP_pressure;BME280_temperature;BME280_humidity;BME280_pressure;Samples;Min_cycle;Max_cycle;Signal;HPM_P1;HPM_P2
2024/01/14 00:02:02;;;;;;;8.45;6.68;;;2.70;1.00;;;;;;6134385;23;20668;-86
2024/01/14 00:04:31;;;;;;;9.25;6.07;;;2.70;1.00;;;;;;6134780;23;20221;-86
2024/01/14 00:06:57;;;;;;;12.18;5.78;;;2.80;1.00;;;;;;6133502;23;20252;-86
2024/01/14 00:09:24;;;;;;;9.05;6.25;;;2.80;1.00;;;;;;6134947;23;20520;-86
2024/01/14 00:11:51;;;;;;;7.88;5.55;;;2.80;1.00;;;;;;6134287;23;20260;-86
2024/01/14 00:14:18;;;;;;;8.00;5.55;;;2.80;1.00;;;;;;6135090;23;20204;-85
2024/01/14 00:16:45;;;;;;;11.85;5.38;;;2.90;1.00;;;;;;6152065;23;20168;-86
2024/01/14 00:19:11;;;;;;;6.88;5.65;;;2.90;1.00;;;;;;6153487;23;20161;-89
2024/01/14 00:21:39;;;;;;;12.80;6.43;;;2.90;1.00;;;;;;6153580;23;20172;-87
2024/01/14 00:24:07;;;;;;;6.85;5.40;;;3.00;1.00;;;;;;6149162;23;20197;-85
2024/01/14 00:26:33;;;;;;;7.93;5.32;;;3.00;1.00;;;;;;6143806;23;20193;-83
2024/01/14 00:29:01;;;;;;;9.73;6.55;;;2.90;1.00;;;;;;6147216;23;20165;-83
2024/01/14 00:31:27;;;;;;;9.70;7.28;;;3.00;1.00;;;;;;6148443;23;20180;-84
2024/01/14 00:33:53;;;;;;;8.77;5.55;;;2.90;1.00;;;;;;6151113;23;20169;-86
2024/01/14 00:36:20;;;;;;;7.47;5.63;;;3.00;1.00;;;;;;6153424;23;20168;-86
2024/01/14 00:38:49;;;;;;;6.45;5.70;;;2.90;1.00;;;;;;6142777;23;20859;-84
2024/01/14 00:41:15;;;;;;;8.27;5.70;;;3.00;1.00;;;;;;6137279;23;20204;-85
2024/01/14 00:43:42;;;;;;;5.70;5.00;;;3.00;1.00;;;;;;6145486;23;20188;-83
2024/01/14 00:46:09;;;;;;;9.82;6.07;;;2.90;1.00;;;;;;6134638;23;20181;-85
2024/01/14 00:48:36;;;;;;;9.38;5.40;;;2.90;1.00;;;;;;6135622;23;20185;-86
2024/01/14 00:51:03;;;;;;;6.45;5.85;;;2.90;1.00;;;;;;6135055;23;20248;-86
2024/01/14 00:53:30;;;;;;;9.93;6.10;;;2.90;1.00;;;;;;6134156;23;20169;-85
2024/01/14 00:55:58;;;;;;;8.95;6.47;;;2.90;1.00;;;;;;6134939;23;20243;-86
2024/01/14 00:58:25;;;;;;;7.57;5.30;;;2.90;1.00;;;;;;6135458;23;20181;-84
2024/01/14 01:00:52;;;;;;;8.05;5.78;;;2.90;1.00;;;;;;6134747;23;20224;-87
2024/01/14 01:03:18;;;;;;;5.93;5.18;;;2.90;1.00;;;;;;6134910;23;20181;-84
2024/01/14 01:05:45;;;;;;;7.05;5.45;;;3.00;1.00;;;;;;6135753;23;20243;-85
2024/01/14 01:08:15;;;;;;;7.10;5.10;;;2.90;1.00;;;;;;6138977;23;20188;-85
2024/01/14 01:10:42;;;;;;;8.32;4.63;;;3.00;1.00;;;;;;6147211;23;20296;-84
2024/01/14 01:13:10;;;;;;;4.88;3.92;;;2.90;1.00;;;;;;6148932;23;20177;-84
2024/01/14 01:15:37;;;;;;;8.07;4.85;;;2.90;1.00;;;;;;6148939;23;20192;-85
2024/01/14 01:18:04;;;;;;;6.85;4.75;;;2.90;1.00;;;;;;6148756;23;20188;-84
2024/01/14 01:20:31;;;;;;;4.45;3.65;;;2.90;1.00;;;;;;6145615;23;20201;-85
2024/01/14 01:22:58;;;;;;;4.07;3.78;;;2.80;1.00;;;;;;6139248;23;20227;-85
2024/01/14 01:25:27;;;;;;;5.95;3.90;;;2.80;1.00;;;;;;6149053;23;20181;-85
2024/01/14 01:27:53;;;;;;;3.88;3.30;;;2.80;1.00;;;;;;6142057;23;20260;-85
2024/01/14 01:30:22;;;;;;;3.30;2.95;;;2.70;1.00;;;;;;6139604;23;20228;-85
2024/01/14 01:32:49;;;;;;;4.03;3.10;;;2.60;1.00;;;;;;6142158;23;20204;-85
2024/01/14 01:35:16;;;;;;;4.65;3.35;;;2.60;1.00;;;;;;6148895;23;20585;-85
2024/01/14 01:37:43;;;;;;;4.97;3.30;;;2.60;1.00;;;;;;6149447;23;20179;-84
2024/01/14 01:40:10;;;;;;;3.30;3.00;;;2.60;1.00;;;;;;6153316;23;20197;-86
2024/01/14 01:42:37;;;;;;;3.10;2.72;;;2.50;1.00;;;;;;6154775;23;20169;-87
2024/01/14 01:45:04;;;;;;;4.15;3.63;;;2.50;1.00;;;;;;6152188;23;20201;-84
2024/01/14 01:47:32;;;;;;;3.17;2.88;;;2.50;1.00;;;;;;6150006;23;20176;-86
2024/01/14 01:50:00;;;;;;;4.32;2.83;;;2.50;1.00;;;;;;6145505;23;20235;-85
2024/01/14 01:52:27;;;;;;;2.90;2.60;;;2.50;1.00;;;;;;6146745;23;20184;-84
2024/01/14 01:54:55;;;;;;;4.55;3.30;;;2.50;1.00;;;;;;6146505;23;20184;-84
2024/01/14 01:57:24;;;;;;;3.20;2.80;;;2.40;1.00;;;;;;6143735;23;20226;-84
2024/01/14 01:59:52;;;;;;;3.25;2.92;;;2.50;1.00;;;;;;6148697;23;20201;-85
2024/01/14 02:02:21;;;;;;;6.38;4.25;;;2.50;1.00;;;;;;6147033;23;20177;-85
2024/01/14 02:04:50;;;;;;;3.55;3.22;;;2.50;1.00;;;;;;6150770;23;20201;-84
2024/01/14 02:07:19;;;;;;;5.35;3.38;;;2.50;1.00;;;;;;6152416;23;20212;-84
2024/01/14 02:09:47;;;;;;;4.45;3.92;;;2.50;1.00;;;;;;6143567;23;20197;-84
2024/01/14 02:12:14;;;;;;;4.05;3.65;;;2.50;1.00;;;;;;6151075;23;20181;-84
2024/01/14 02:14:40;;;;;;;5.15;4.25;;;2.40;1.00;;;;;;6151890;23;20177;-84
2024/01/14 02:17:07;;;;;;;7.00;4.13;;;2.40;1.00;;;;;;6149137;23;20185;-84
2024/01/14 02:19:34;;;;;;;7.82;4.15;;;2.50;1.00;;;;;;6132543;23;20239;-84
2024/01/14 02:22:09;;;;;;;5.75;3.30;;;2.50;1.00;;;;;;6132566;23;20215;-84
2024/01/14 02:24:38;;;;;;;8.73;4.70;;;2.40;1.00;;;;;;6139908;23;20172;-85
2024/01/14 02:27:05;;;;;;;4.05;3.53;;;2.50;1.00;;;;;;6139308;23;20177;-83
2024/01/14 02:29:33;;;;;;;3.63;3.33;;;2.50;1.00;;;;;;6134662;23;20272;-85
2024/01/14 02:32:00;;;;;;;4.50;3.00;;;2.50;1.00;;;;;;6131043;23;20200;-84
2024/01/14 02:34:27;;;;;;;4.30;3.55;;;2.50;1.00;;;;;;6134286;23;20639;-84
2024/01/14 02:36:54;;;;;;;5.85;3.20;;;2.50;1.00;;;;;;6140279;23;20188;-84
2024/01/14 02:39:21;;;;;;;4.43;2.45;;;2.60;1.00;;;;;;6134210;23;20283;-85
2024/01/14 02:41:49;;;;;;;5.38;2.65;;;2.60;1.00;;;;;;6132677;23;20219;-84
2024/01/14 02:44:16;;;;;;;4.53;3.00;;;2.50;1.00;;;;;;6132748;23;20253;-86
2024/01/14 02:46:43;;;;;;;2.45;2.25;;;2.50;1.00;;;;;;6132079;23;20566;-84
2024/01/14 02:49:11;;;;;;;3.88;2.70;;;2.50;1.00;;;;;;6130851;23;20177;-81
2024/01/14 02:51:37;;;;;;;5.13;2.03;;;2.50;1.00;;;;;;6135772;23;20306;-84
2024/01/14 02:54:04;;;;;;;5.70;3.40;;;2.50;1.00;;;;;;6133168;23;20216;-83
2024/01/14 02:56:31;;;;;;;4.97;2.35;;;2.60;1.00;;;;;;6129038;23;20252;-83
2024/01/14 02:58:59;;;;;;;4.63;3.15;;;2.60;1.00;;;;;;6129748;23;20236;-84
2024/01/14 03:01:26;;;;;;;8.13;3.15;;;2.50;1.00;;;;;;6129940;23;20280;-83
2024/01/14 03:03:53;;;;;;;3.72;2.22;;;2.50;1.00;;;;;;6130813;23;20215;-83
2024/01/14 03:06:20;;;;;;;4.25;2.35;;;2.50;1.00;;;;;;6131092;23;20726;-82
2024/01/14 03:08:47;;;;;;;2.80;2.03;;;2.50;1.00;;;;;;6134385;23;20473;-82
2024/01/14 03:11:14;;;;;;;6.28;2.45;;;2.50;1.00;;;;;;6136698;23;20208;-83
2024/01/14 03:13:40;;;;;;;3.85;2.28;;;2.50;1.00;;;;;;6143456;23;20192;-84
2024/01/14 03:16:09;;;;;;;2.42;1.95;;;2.40;1.00;;;;;;6142280;23;20177;-83
2024/01/14 03:18:36;;;;;;;4.32;2.50;;;2.40;1.00;;;;;;6140232;23;20196;-83
2024/01/14 03:21:03;;;;;;;4.38;2.40;;;2.30;1.00;;;;;;6146981;23;20201;-83
2024/01/14 03:23:30;;;;;;;2.90;2.03;;;2.30;1.00;;;;;;6147479;23;20192;-82
2024/01/14 03:25:56;;;;;;;5.88;2.00;;;2.30;1.00;;;;;;6138763;23;20224;-84
2024/01/14 03:28:24;;;;;;;3.13;1.92;;;2.30;1.00;;;;;;6133669;23;20256;-84
2024/01/14 03:30:50;;;;;;;6.93;1.80;;;2.30;1.00;;;;;;6133925;23;20273;-83
2024/01/14 03:33:19;;;;;;;9.05;2.33;;;2.30;99.90;;;;;;6145735;23;20260;-83
2024/01/14 03:35:45;;;;;;;9.27;2.17;;;2.40;99.90;;;;;;6133050;23;20225;-83
2024/01/14 03:38:12;;;;;;;5.30;2.03;;;2.30;99.90;;;;;;6133517;23;20519;-83
2024/01/14 03:40:39;;;;;;;6.45;1.95;;;2.40;99.90;;;;;;6133658;23;20223;-84
2024/01/14 03:43:06;;;;;;;5.43;1.75;;;2.40;99.90;;;;;;6134285;23;20256;-83
2024/01/14 03:45:33;;;;;;;6.00;1.50;;;2.40;99.90;;;;;;6132390;23;20193;-83
2024/01/14 03:47:59;;;;;;;3.70;1.65;;;2.40;99.90;;;;;;6132666;23;20223;-83
2024/01/14 03:50:28;;;;;;;4.50;1.55;;;2.30;99.90;;;;;;6133330;23;20263;-84
2024/01/14 03:52:54;;;;;;;5.05;1.67;;;2.20;99.90;;;;;;6133007;23;20215;-84
2024/01/14 03:55:21;;;;;;;6.72;1.98;;;2.20;99.90;;;;;;6135267;23;20181;-82
2024/01/14 03:57:48;;;;;;;5.18;2.00;;;2.10;99.90;;;;;;6134219;23;20259;-83
2024/01/14 04:00:18;;;;;;;6.15;1.65;;;2.10;99.90;;;;;;6132267;23;20256;-82
2024/01/14 04:02:46;;;;;;;6.20;2.15;;;2.00;99.90;;;;;;6137367;23;20180;-82
2024/01/14 04:05:13;;;;;;;5.53;2.00;;;2.10;99.90;;;;;;6134925;23;20527;-83
2024/01/14 04:07:41;;;;;;;4.28;2.00;;;2.10;99.90;;;;;;6133951;23;20204;-83
2024/01/14 04:10:09;;;;;;;7.03;1.70;;;2.10;99.90;;;;;;6136809;23;20201;-82
2024/01/14 04:12:36;;;;;;;7.50;2.42;;;2.20;99.90;;;;;;6129149;23;20216;-83
2024/01/14 04:15:02;;;;;;;2.90;1.55;;;2.20;99.90;;;;;;6130010;23;20173;-83
2024/01/14 04:17:29;;;;;;;11.15;2.10;;;2.20;99.90;;;;;;6128997;23;20259;-83
2024/01/14 04:19:56;;;;;;;9.63;2.10;;;2.30;99.90;;;;;;6129256;23;20280;-83
2024/01/14 04:22:23;;;;;;;4.30;1.70;;;2.30;99.90;;;;;;6132833;23;20236;-83
2024/01/14 04:24:51;;;;;;;8.48;2.00;;;2.30;99.90;;;;;;6134345;23;20177;-84
2024/01/14 04:27:18;;;;;;;4.50;1.67;;;2.30;99.90;;;;;;6133049;23;20256;-83
2024/01/14 04:29:45;;;;;;;9.30;1.85;;;2.40;99.90;;;;;;6132911;23;20280;-83
2024/01/14 04:32:12;;;;;;;11.48;2.05;;;2.40;99.90;;;;;;6133083;23;20678;-83
2024/01/14 04:34:38;;;;;;;9.45;1.48;;;2.50;99.90;;;;;;6132865;23;20216;-83
2024/01/14 04:37:05;;;;;;;4.47;1.83;;;2.50;99.90;;;;;;6133085;23;20256;-83
2024/01/14 04:39:32;;;;;;;5.55;1.88;;;2.50;99.90;;;;;;6133927;23;20302;-83
2024/01/14 04:42:00;;;;;;;4.18;1.50;;;2.60;99.90;;;;;;6147939;23;20181;-82
2024/01/14 04:44:27;;;;;;;2.97;1.83;;;2.60;99.90;;;;;;6148623;23;20188;-83
2024/01/14 04:46:55;;;;;;;10.38;1.95;;;2.60;99.90;;;;;;6141195;23;20601;-83
2024/01/14 04:49:22;;;;;;;6.25;2.10;;;2.60;99.90;;;;;;6135128;23;20181;-83
2024/01/14 04:51:48;;;;;;;4.60;2.38;;;2.60;99.90;;;;;;6135364;23;20166;-83
2024/01/14 04:54:15;;;;;;;7.53;2.20;;;2.50;99.90;;;;;;6139283;23;20181;-82
2024/01/14 04:56:42;;;;;;;9.07;4.72;;;2.60;99.90;;;;;;6142870;23;20283;-82
2024/01/14 04:59:10;;;;;;;12.70;5.68;;;2.70;99.90;;;;;;6148618;23;20181;-82
2024/01/14 05:01:36;;;;;;;10.73;3.78;;;2.70;99.90;;;;;;6151957;23;20181;-82
2024/01/14 05:04:04;;;;;;;7.50;2.67;;;2.70;99.90;;;;;;6141050;23;20188;-83
2024/01/14 05:06:30;;;;;;;7.38;3.17;;;2.70;99.90;;;;;;6141090;23;20288;-83
2024/01/14 05:08:57;;;;;;;3.35;1.80;;;2.70;99.90;;;;;;6140259;23;20204;-83
2024/01/14 05:11:24;;;;;;;5.05;1.45;;;2.70;99.90;;;;;;6136229;23;20280;-82
2024/01/14 05:13:51;;;;;;;6.53;1.88;;;2.70;99.60;;;;;;6140065;23;20188;-84
2024/01/14 05:16:19;;;;;;;4.07;1.70;;;2.70;69.20;;;;;;6154676;23;20165;-83
2024/01/14 05:18:46;;;;;;;6.80;1.90;;;2.60;52.30;;;;;;6155933;23;20181;-82
2024/01/14 05:21:16;;;;;;;6.53;2.38;;;2.60;84.50;;;;;;6152979;23;20208;-83
2024/01/14 05:23:42;;;;;;;14.25;3.60;;;2.60;95.40;;;;;;6152105;23;20216;-83
2024/01/14 05:26:11;;;;;;;13.85;3.55;;;2.60;99.00;;;;;;6150733;23;20304;-83
2024/01/14 05:28:38;;;;;;;12.13;3.85;;;2.60;99.90;;;;;;6142082;23;20188;-83
2024/01/14 05:31:05;;;;;;;5.13;2.80;;;2.60;99.90;;;;;;6139547;23;20257;-82
2024/01/14 05:33:33;;;;;;;6.20;3.70;;;2.70;99.90;;;;;;6136520;23;20181;-82
2024/01/14 05:36:01;;;;;;;5.60;2.70;;;2.60;91.80;;;;;;6135967;23;20285;-82
2024/01/14 05:38:28;;;;;;;10.43;2.38;;;2.60;71.70;;;;;;6135134;23;20256;-82
2024/01/14 05:40:55;;;;;;;3.53;1.90;;;2.60;75.20;;;;;;6134628;23;20220;-83
2024/01/14 05:43:22;;;;;;;3.05;2.60;;;2.60;48.40;;;;;;6134758;23;20579;-84
2024/01/14 05:45:49;;;;;;;8.05;1.92;;;2.60;1.00;;;;;;6140764;23;20224;-84
2024/01/14 05:48:16;;;;;;;13.05;5.95;;;2.70;12.40;;;;;;6145084;23;20228;-83
2024/01/14 05:50:44;;;;;;;7.93;3.83;;;2.60;31.00;;;;;;6137936;23;20295;-83
2024/01/14 05:53:11;;;;;;;10.15;2.97;;;2.70;61.10;;;;;;6136957;23;20240;-84
2024/01/14 05:55:38;;;;;;;8.10;2.72;;;2.70;97.50;;;;;;6135584;23;20177;-83
2024/01/14 05:58:06;;;;;;;4.47;2.05;;;2.70;99.90;;;;;;6135672;23;20181;-84
2024/01/14 06:00:33;;;;;;;5.53;2.13;;;2.60;99.90;;;;;;6144547;23;20185;-82
2024/01/14 06:03:01;;;;;;;13.35;2.13;;;2.70;99.90;;;;;;6137127;23;20177;-84
2024/01/14 06:05:27;;;;;;;4.63;2.10;;;2.70;99.90;;;;;;6132885;23;20192;-83
2024/01/14 06:07:55;;;;;;;4.40;2.38;;;2.70;99.90;;;;;;6133487;23;20237;-83
2024/01/14 06:10:22;;;;;;;2.45;1.58;;;2.60;99.90;;;;;;6134591;23;20586;-82
2024/01/14 06:12:49;;;;;;;5.68;2.13;;;2.60;99.90;;;;;;6135771;23;20205;-82
2024/01/14 06:15:16;;;;;;;6.82;2.58;;;2.50;99.90;;;;;;6133802;23;20187;-83
2024/01/14 06:17:43;;;;;;;4.88;1.90;;;2.50;99.90;;;;;;6134341;23;20205;-83
2024/01/14 06:20:11;;;;;;;6.70;1.90;;;2.50;99.90;;;;;;6134524;23;20201;-83
2024/01/14 06:22:38;;;;;;;2.80;1.40;;;2.50;99.90;;;;;;6135692;23;20232;-84
2024/01/14 06:25:07;;;;;;;3.45;1.52;;;2.50;99.90;;;;;;6134180;23;20232;-82
2024/01/14 06:27:33;;;;;;;3.67;1.45;;;2.50;99.90;;;;;;6134136;23;20205;-83
2024/01/14 06:30:02;;;;;;;9.25;2.10;;;2.40;99.90;;;;;;6134270;23;20204;-83
2024/01/14 06:32:29;;;;;;;5.53;1.83;;;2.40;99.90;;;;;;6142655;23;20187;-83
2024/01/14 06:34:56;;;;;;;3.83;1.67;;;2.40;99.90;;;;;;6142933;23;20188;-84
2024/01/14 06:37:23;;;;;;;8.05;1.75;;;2.30;99.90;;;;;;6141663;23;20252;-84
2024/01/14 06:39:50;;;;;;;5.80;2.42;;;2.30;99.90;;;;;;6146673;23;20261;-83
2024/01/14 06:42:18;;;;;;;3.15;1.30;;;2.30;99.90;;;;;;6147763;23;20204;-83
2024/01/14 06:44:45;;;;;;;4.15;1.92;;;2.40;99.90;;;;;;6146837;23;20188;-83
2024/01/14 06:47:12;;;;;;;4.07;2.38;;;2.30;99.90;;;;;;6144318;23;20204;-83
2024/01/14 06:49:40;;;;;;;6.63;3.45;;;2.30;99.90;;;;;;6146760;23;20209;-82
2024/01/14 06:52:07;;;;;;;7.00;2.05;;;2.40;99.90;;;;;;6145247;23;20196;-83
2024/01/14 06:54:33;;;;;;;5.70;2.17;;;2.40;99.90;;;;;;6138078;23;20522;-83
2024/01/14 06:57:00;;;;;;;5.25;1.60;;;2.30;99.90;;;;;;6135099;23;20178;-83
2024/01/14 06:59:28;;;;;;;4.60;2.22;;;2.40;99.90;;;;;;6134969;23;20181;-83
2024/01/14 07:01:55;;;;;;;4.20;1.38;;;2.40;99.90;;;;;;6135415;23;20571;-83
2024/01/14 07:04:23;;;;;;;4.97;1.73;;;2.40;99.90;;;;;;6135920;23;20233;-83
2024/01/14 07:06:50;;;;;;;5.88;3.20;;;2.40;99.90;;;;;;6134894;23;20279;-83
2024/01/14 07:09:17;;;;;;;3.22;1.85;;;2.40;99.90;;;;;;6134326;23;20208;-83
2024/01/14 07:11:43;;;;;;;3.72;1.58;;;2.40;99.90;;;;;;6141841;23;20196;-83
2024/01/14 07:14:10;;;;;;;6.38;2.70;;;2.30;99.90;;;;;;6136828;23;20668;-84
2024/01/14 07:16:38;;;;;;;3.47;1.55;;;2.40;99.90;;;;;;6148299;23;20228;-83
2024/01/14 07:19:05;;;;;;;7.68;1.60;;;2.30;99.90;;;;;;6147801;23;20184;-82
2024/01/14 07:21:32;;;;;;;5.03;1.90;;;2.40;99.90;;;;;;6141919;23;20280;-83
2024/01/14 07:23:59;;;;;;;6.68;3.00;;;2.40;99.90;;;;;;6135230;23;20267;-83
2024/01/14 07:26:26;;;;;;;3.83;1.50;;;2.40;99.90;;;;;;6134947;23;20197;-82
2024/01/14 07:28:53;;;;;;;6.70;1.92;;;2.40;99.90;;;;;;6143198;23;20184;-82
2024/01/14 07:31:21;;;;;;;2.10;1.75;;;2.40;99.90;;;;;;6134847;23;20251;-83
2024/01/14 07:33:50;;;;;;;2.55;2.30;;;2.40;99.90;;;;;;6134295;23;20212;-84
2024/01/14 07:36:17;;;;;;;3.22;1.77;;;2.50;99.90;;;;;;6136934;23;20177;-82
2024/01/14 07:38:45;;;;;;;3.63;1.33;;;2.40;99.90;;;;;;6135526;23;20267;-83
2024/01/14 07:41:13;;;;;;;8.13;2.08;;;2.40;99.90;;;;;;6134906;23;20283;-83
2024/01/14 07:43:40;;;;;;;7.82;2.15;;;2.40;99.90;;;;;;6135003;23;20185;-83
2024/01/14 07:46:07;;;;;;;6.88;2.45;;;2.40;99.90;;;;;;6134685;23;20197;-83
2024/01/14 07:48:34;;;;;;;2.67;2.17;;;2.40;99.90;;;;;;6134192;23;20223;-84
2024/01/14 07:51:03;;;;;;;2.30;1.75;;;2.50;99.90;;;;;;6134741;23;20209;-83
2024/01/14 07:53:30;;;;;;;7.05;2.13;;;2.50;99.90;;;;;;6133689;23;20181;-83
2024/01/14 07:55:57;;;;;;;4.88;1.85;;;2.50;99.90;;;;;;6135932;23;20181;-83
2024/01/14 07:58:24;;;;;;;4.40;1.80;;;2.50;99.90;;;;;;6133990;23;20532;-84
2024/01/14 08:00:51;;;;;;;2.60;1.60;;;2.50;99.90;;;;;;6133681;23;20239;-83
2024/01/14 08:03:18;;;;;;;5.13;1.75;;;2.50;99.90;;;;;;6133657;23;20212;-84
2024/01/14 08:05:45;;;;;;;7.45;1.50;;;2.50;99.90;;;;;;6134156;23;20228;-83
2024/01/14 08:08:13;;;;;;;3.97;1.90;;;2.50;99.90;;;;;;6136134;23;20515;-84
2024/01/14 08:10:40;;;;;;;2.95;1.90;;;2.50;99.90;;;;;;6135758;23;20251;-83
2024/01/14 08:13:07;;;;;;;4.20;2.20;;;2.50;98.10;;;;;;6137181;23;20204;-83
2024/01/14 08:15:36;;;;;;;8.63;1.73;;;2.50;93.70;;;;;;6143895;23;20212;-84
2024/01/14 08:18:03;;;;;;;9.10;2.17;;;2.60;99.90;;;;;;6143918;23;20188;-83
2024/01/14 08:20:31;;;;;;;5.10;1.88;;;2.60;74.40;;;;;;6141767;23;20228;-83
2024/01/14 08:22:58;;;;;;;7.22;2.00;;;2.60;95.80;;;;;;6141401;23;20181;-83
2024/01/14 08:25:26;;;;;;;4.40;2.08;;;2.60;85.80;;;;;;6150539;23;20229;-83
2024/01/14 08:27:53;;;;;;;3.70;2.15;;;2.60;98.00;;;;;;6141871;23;20284;-83
2024/01/14 08:30:20;;;;;;;4.68;1.80;;;2.60;99.90;;;;;;6148253;23;20534;-83
2024/01/14 08:32:47;;;;;;;4.63;4.18;;;2.70;72.40;;;;;;6135929;23;20208;-83
2024/01/14 08:35:14;;;;;;;5.68;1.50;;;2.70;27.90;;;;;;6154805;23;20181;-82
2024/01/14 08:37:43;;;;;;;5.72;1.80;;;2.70;1.00;;;;;;6156295;23;20199;-81
2024/01/14 08:40:12;;;;;;;4.60;1.95;;;2.70;1.00;;;;;;6153167;23;20185;-83
2024/01/14 08:42:43;;;;;;;8.52;2.35;;;2.80;1.00;;;;;;6143376;23;20177;-83
2024/01/14 08:45:11;;;;;;;4.53;1.42;;;2.80;1.00;;;;;;6146342;23;20166;-83
2024/01/14 08:47:37;;;;;;;2.67;1.60;;;2.80;1.00;;;;;;6149981;23;20200;-82
2024/01/14 08:50:06;;;;;;;7.50;2.28;;;2.70;1.00;;;;;;6095230;23;1155819;-88
2024/01/14 08:52:33;;;;;;;6.93;2.15;;;2.80;1.00;;;;;;6133869;23;20191;-88
2024/01/14 08:55:00;;;;;;;8.52;2.42;;;2.70;1.00;;;;;;6134073;23;20185;-87
2024/01/14 08:57:27;;;;;;;4.75;2.00;;;2.80;1.00;;;;;;6134526;23;20177;-89
2024/01/14 08:59:56;;;;;;;2.90;1.65;;;2.80;1.00;;;;;;6132852;23;20197;-88
2024/01/14 09:02:23;;;;;;;4.05;2.15;;;2.90;1.00;;;;;;6133822;23;20173;-88
2024/01/14 09:04:50;;;;;;;4.13;1.58;;;3.00;1.00;;;;;;6135523;23;20196;-89
2024/01/14 09:07:17;;;;;;;6.63;2.05;;;2.90;1.00;;;;;;6135754;23;20197;-87
2024/01/14 09:09:44;;;;;;;5.30;1.83;;;2.90;1.00;;;;;;6140374;23;20181;-87
2024/01/14 09:12:11;;;;;;;4.20;1.70;;;3.00;1.00;;;;;;6152510;23;20181;-88
2024/01/14 09:14:38;;;;;;;5.25;1.67;;;3.10;1.00;;;;;;6150175;23;20236;-88
2024/01/14 09:17:06;;;;;;;6.82;1.58;;;3.10;1.00;;;;;;6153301;23;20692;-88
2024/01/14 09:19:33;;;;;;;4.20;1.80;;;3.10;1.00;;;;;;6153419;23;20196;-88
2024/01/14 09:22:00;;;;;;;2.33;1.25;;;3.20;1.00;;;;;;6154204;23;20185;-88
2024/01/14 09:24:29;;;;;;;2.20;1.55;;;3.30;1.00;;;;;;6154956;23;20161;-87
2024/01/14 09:26:55;;;;;;;2.20;1.70;;;3.10;1.00;;;;;;6152708;23;20193;-87
2024/01/14 09:29:22;;;;;;;6.32;2.58;;;3.10;1.00;;;;;;6139604;23;20177;-87
2024/01/14 09:31:49;;;;;;;2.88;1.98;;;3.30;1.00;;;;;;6137416;23;20201;-87
2024/01/14 09:34:18;;;;;;;4.82;1.58;;;3.30;1.00;;;;;;6137292;23;20181;-87
2024/01/14 09:36:45;;;;;;;2.03;1.70;;;3.30;1.00;;;;;;6139449;23;20181;-88
2024/01/14 09:39:12;;;;;;;8.32;2.22;;;3.20;1.00;;;;;;6155219;23;20165;-88
2024/01/14 09:41:45;;;;;;;3.90;1.95;;;3.30;1.00;;;;;;6155666;23;20200;-88
2024/01/14 09:44:16;;;;;;;1.50;1.40;;;3.20;1.00;;;;;;6155685;23;20177;-88
2024/01/14 09:46:44;;;;;;;5.88;2.25;;;3.30;1.00;;;;;;6155501;23;20192;-89
2024/01/14 09:49:12;;;;;;;4.93;2.05;;;3.30;1.00;;;;;;6155523;23;20184;-88
2024/01/14 09:51:42;;;;;;;4.97;2.00;;;3.30;1.00;;;;;;6155104;23;20249;-88
2024/01/14 09:54:09;;;;;;;5.72;1.85;;;3.30;1.00;;;;;;6150035;23;20216;-88
2024/01/14 09:56:37;;;;;;;6.22;1.95;;;3.40;1.00;;;;;;6148947;23;20184;-89
2024/01/14 09:59:06;;;;;;;26.10;3.20;;;3.30;1.00;;;;;;6146597;23;20173;-89
2024/01/14 10:01:34;;;;;;;13.63;6.05;;;3.40;1.00;;;;;;6138789;23;20201;-88
2024/01/14 10:04:02;;;;;;;6.25;2.05;;;3.40;1.00;;;;;;6136778;23;20184;-88
2024/01/14 10:06:30;;;;;;;2.17;1.98;;;3.40;1.00;;;;;;6134959;23;20173;-88
2024/01/14 10:08:59;;;;;;;4.03;2.13;;;3.40;1.00;;;;;;6137251;23;20191;-88
2024/01/14 10:11:27;;;;;;;3.78;3.08;;;3.40;1.00;;;;;;6136248;23;20220;-88
2024/01/14 10:13:54;;;;;;;4.75;1.60;;;3.40;1.00;;;;;;6135504;23;20188;-87
2024/01/14 10:16:22;;;;;;;10.27;2.53;;;3.30;1.00;;;;;;6135586;23;20181;-88
2024/01/14 10:18:51;;;;;;;2.25;1.55;;;3.30;1.00;;;;;;6136566;23;20177;-88
2024/01/14 10:21:18;;;;;;;3.97;2.28;;;3.40;1.00;;;;;;6148421;23;20203;-88
2024/01/14 10:23:45;;;;;;;4.22;2.20;;;3.40;1.00;;;;;;6143646;23;20177;-88
2024/01/14 10:26:14;;;;;;;4.32;1.98;;;3.40;1.00;;;;;;6151187;23;20185;-87
2024/01/14 10:28:41;;;;;;;3.15;1.90;;;3.50;1.00;;;;;;6146884;23;20190;-88
2024/01/14 10:31:08;;;;;;;7.50;2.40;;;3.50;1.00;;;;;;6151405;23;20201;-87
2024/01/14 10:33:36;;;;;;;2.65;1.70;;;3.50;1.00;;;;;;6142058;23;20252;-89
2024/01/14 10:36:08;;;;;;;5.90;2.55;;;3.50;1.00;;;;;;6137115;23;20188;-87
2024/01/14 10:38:36;;;;;;;4.15;1.80;;;3.40;1.00;;;;;;6136044;23;20164;-87
2024/01/14 10:41:04;;;;;;;5.90;1.92;;;3.30;1.00;;;;;;6136628;23;20200;-87
2024/01/14 10:43:34;;;;;;;3.97;1.58;;;3.40;1.00;;;;;;6136623;23;20319;-88
2024/01/14 10:46:02;;;;;;;2.08;1.92;;;3.30;1.00;;;;;;6134464;23;20181;-88
2024/01/14 10:48:29;;;;;;;5.80;2.25;;;3.40;1.00;;;;;;6134643;23;20528;-88
2024/01/14 10:51:03;;;;;;;3.65;2.33;;;3.30;1.00;;;;;;6134953;23;20263;-87
2024/01/14 10:53:35;;;;;;;8.88;1.70;;;3.30;1.00;;;;;;6147529;23;20151;-87
2024/01/14 10:56:03;;;;;;;4.90;1.85;;;3.40;1.00;;;;;;6154757;23;20214;-87
2024/01/14 10:58:36;;;;;;;4.63;2.00;;;3.30;1.00;;;;;;6143203;23;20169;-87
2024/01/14 11:01:07;;;;;;;11.55;2.40;;;3.40;1.00;;;;;;6137870;23;20631;-88
2024/01/14 11:03:35;;;;;;;9.68;2.88;;;3.40;1.00;;;;;;6136585;23;20193;-88
2024/01/14 11:06:03;;;;;;;4.32;2.70;;;3.30;1.00;;;;;;6136591;23;20184;-88
2024/01/14 11:08:31;;;;;;;2.47;2.10;;;3.40;1.00;;;;;;6135967;23;20197;-89
2024/01/14 11:10:59;;;;;;;7.38;2.22;;;3.40;1.00;;;;;;6143167;23;20201;-87
2024/01/14 11:13:32;;;;;;;2.42;2.20;;;3.40;1.00;;;;;;6151066;23;20181;-87
2024/01/14 11:16:10;;;;;;;2.67;1.90;;;3.40;1.00;;;;;;6150270;23;20209;-88
2024/01/14 11:18:44;;;;;;;3.72;2.42;;;3.60;1.00;;;;;;6148454;23;20153;-89
2024/01/14 11:21:24;;;;;;;3.50;2.28;;;3.60;1.00;;;;;;6152299;23;20208;-87
2024/01/14 11:23:51;;;;;;;2.22;1.98;;;3.70;1.00;;;;;;6152975;23;20216;-87
2024/01/14 11:26:19;;;;;;;5.18;2.53;;;3.60;99.90;;;;;;6151915;23;20181;-88
2024/01/14 11:28:47;;;;;;;2.50;2.20;;;3.80;99.90;;;;;;6150648;23;20193;-87
2024/01/14 11:31:16;;;;;;;4.75;2.60;;;3.80;99.90;;;;;;6151302;23;20228;-88
2024/01/14 11:33:46;;;;;;;5.90;2.45;;;3.80;99.90;;;;;;6148841;23;20172;-88
2024/01/14 11:36:35;;;;;;;3.75;2.08;;;3.80;99.90;;;;;;6148230;23;20609;-87
2024/01/14 11:39:05;;;;;;;2.60;2.20;;;3.80;99.90;;;;;;6146536;23;20192;-88
2024/01/14 11:41:35;;;;;;;4.22;2.08;;;3.90;99.90;;;;;;6146459;23;20659;-89
2024/01/14 11:44:05;;;;;;;4.28;1.90;;;3.90;99.90;;;;;;6149866;23;20181;-88
2024/01/14 11:46:42;;;;;;;2.17;1.98;;;4.30;99.90;;;;;;6147540;23;20165;-87
2024/01/14 11:49:10;;;;;;;11.57;2.55;;;3.90;99.90;;;;;;6142414;23;20193;-90
2024/01/14 11:51:41;;;;;;;5.40;2.55;;;3.90;99.90;;;;;;6146139;23;20235;-88
2024/01/14 11:54:09;;;;;;;5.28;2.55;;;3.80;99.90;;;;;;6147609;23;20165;-88
2024/01/14 11:56:37;;;;;;;9.55;3.03;;;3.90;99.90;;;;;;6144574;23;20233;-87
2024/01/14 11:59:13;;;;;;;3.63;2.40;;;3.90;99.90;;;;;;6148961;23;20176;-88
2024/01/14 12:01:41;;;;;;;4.00;2.17;;;4.00;99.90;;;;;;6152977;23;20212;-88
2024/01/14 12:04:09;;;;;;;4.32;3.40;;;4.10;99.90;;;;;;6153695;23;20161;-87
2024/01/14 12:06:40;;;;;;;4.25;3.55;;;4.10;99.90;;;;;;6151964;23;20176;-88
2024/01/14 12:09:08;;;;;;;8.98;4.05;;;4.00;99.90;;;;;;6138900;23;20675;-86
2024/01/14 12:11:35;;;;;;;9.65;5.05;;;4.00;99.90;;;;;;6137651;23;20664;-88
2024/01/14 12:14:03;;;;;;;16.42;7.93;;;3.90;99.90;;;;;;6150255;23;20512;-89
2024/01/14 12:16:30;;;;;;;4.72;3.53;;;3.90;99.90;;;;;;6151240;23;20181;-88
2024/01/14 12:19:00;;;;;;;6.63;3.08;;;3.80;99.90;;;;;;6146719;23;20184;-87
2024/01/14 12:21:28;;;;;;;6.57;2.25;;;3.80;99.90;;;;;;6137572;23;20197;-88
2024/01/14 12:23:55;;;;;;;5.88;2.70;;;3.80;99.90;;;;;;6135586;23;20173;-88
2024/01/14 12:26:22;;;;;;;3.47;1.92;;;3.80;99.90;;;;;;6135370;23;20192;-87
2024/01/14 12:28:49;;;;;;;5.25;1.98;;;3.80;99.90;;;;;;6136074;23;20193;-88
2024/01/14 12:31:19;;;;;;;9.52;2.75;;;3.90;99.90;;;;;;6135281;23;20201;-86
2024/01/14 12:33:46;;;;;;;4.97;2.40;;;4.00;99.90;;;;;;6134951;23;20621;-86
2024/01/14 12:36:15;;;;;;;7.95;2.28;;;3.90;73.50;;;;;;6134455;23;20193;-87
2024/01/14 12:38:45;;;;;;;2.92;1.88;;;3.80;99.90;;;;;;6144425;23;20170;-87
2024/01/14 12:41:13;;;;;;;3.75;2.30;;;3.80;99.90;;;;;;6141208;23;20201;-88
2024/01/14 12:43:41;;;;;;;5.53;2.10;;;3.80;99.90;;;;;;6145451;23;20191;-87
2024/01/14 12:46:08;;;;;;;4.60;2.50;;;3.80;99.90;;;;;;6153232;23;20188;-88
2024/01/14 12:48:34;;;;;;;6.35;2.53;;;4.00;99.90;;;;;;6150096;23;20197;-86
2024/01/14 12:51:04;;;;;;;7.50;2.60;;;3.90;99.90;;;;;;6153118;23;20213;-87
2024/01/14 12:53:33;;;;;;;6.72;2.95;;;3.80;99.90;;;;;;6153303;23;20174;-88
2024/01/14 12:56:14;;;;;;;5.47;2.10;;;3.60;99.90;;;;;;6148102;23;20212;-88
2024/01/14 12:58:41;;;;;;;2.67;1.98;;;3.60;99.90;;;;;;6136437;23;20192;-87
2024/01/14 13:01:10;;;;;;;4.30;2.47;;;3.50;99.90;;;;;;6141244;23;20230;-88
2024/01/14 13:03:39;;;;;;;3.58;2.20;;;3.50;99.90;;;;;;6137324;23;20181;-88